Time;durP1;ratioP1;P1;durP2;ratioP2;P2;SDS_P1;SDS_P2;PMS_P1;PMS_P2;Temp;Humidity;BMP_temperature;BMP_pressure;BME280_temperature;BME280_humidity;BME280_pressure;Samples;Min_cycle;Max_cycle;Signal;HPM_P1;HPM_P2
2023/08/14 00:00:33;;;;;;;14.63;3.20;;;19.20;99.90;;;18.41;94.13;101324.00;4956828;28;20035;-76
2023/08/14 00:02:59;;;;;;;15.55;3.60;;;19.20;99.90;;;18.42;93.96;101328.38;4970934;28;20125;-76
2023/08/14 00:05:26;;;;;;;12.68;3.38;;;19.20;99.90;;;18.42;93.98;101327.50;4954687;28;20040;-76
2023/08/14 00:07:52;;;;;;;11.40;3.85;;;19.20;99.90;;;18.39;94.49;101319.72;4939123;28;20030;-76
2023/08/14 00:10:17;;;;;;;12.27;3.60;;;19.20;99.90;;;18.40;94.29;101324.09;4932368;28;20063;-75
2023/08/14 00:12:43;;;;;;;13.52;3.92;;;19.10;99.90;;;18.39;94.10;101317.06;4952833;28;20039;-76
2023/08/14 00:15:09;;;;;;;16.02;3.88;;;19.10;99.90;;;18.37;93.94;101319.84;4956060;28;20117;-76
2023/08/14 00:17:35;;;;;;;14.00;4.10;;;19.10;99.90;;;18.38;94.10;101321.56;4966263;28;20097;-76
2023/08/14 00:20:02;;;;;;;13.77;4.30;;;19.10;99.90;;;18.38;94.79;101320.69;4950276;28;20693;-76
2023/08/14 00:22:28;;;;;;;9.55;3.95;;;19.10;99.90;;;18.35;94.76;101319.09;4971783;28;20502;-76
2023/08/14 00:24:54;;;;;;;13.38;4.00;;;19.10;99.90;;;18.31;94.90;101322.06;4946069;28;20114;-76
2023/08/14 00:27:21;;;;;;;11.75;4.10;;;19.10;99.90;;;18.29;94.80;101327.50;4955014;28;20026;-76
2023/08/14 00:29:46;;;;;;;9.30;4.15;;;19.10;99.90;;;18.29;95.37;101326.66;4953957;28;20085;-76
2023/08/14 00:32:12;;;;;;;12.50;4.05;;;19.10;99.90;;;18.19;96.37;101321.97;4954243;28;20039;-76
2023/08/14 00:34:38;;;;;;;14.45;4.30;;;19.00;99.90;;;18.20;96.79;101317.50;4953312;28;20122;-76
2023/08/14 00:37:04;;;;;;;16.45;3.80;;;19.00;99.90;;;18.19;96.73;101318.47;4946399;28;20069;-76
2023/08/14 00:39:30;;;;;;;17.30;4.03;;;19.00;99.90;;;18.14;96.65;101315.25;4969178;28;22244;-76
2023/08/14 00:41:58;;;;;;;12.82;4.22;;;18.90;99.90;;;18.10;96.78;101314.63;4955307;28;20150;-76
2023/08/14 00:44:24;;;;;;;11.27;4.10;;;18.90;99.90;;;18.12;96.52;101312.72;4951520;28;20038;-76
2023/08/14 00:46:50;;;;;;;19.77;4.15;;;18.90;99.90;;;18.12;96.27;101315.38;4968074;28;20039;-76
2023/08/14 00:49:16;;;;;;;10.82;3.95;;;18.90;99.90;;;18.10;96.15;101314.63;4958054;28;20050;-75
2023/08/14 00:51:42;;;;;;;8.80;3.45;;;18.90;99.90;;;18.09;95.34;101314.72;4953275;28;20045;-76
2023/08/14 00:54:08;;;;;;;15.52;3.72;;;18.80;99.90;;;18.07;95.05;101320.16;4953546;28;20466;-76
2023/08/14 00:56:34;;;;;;;10.85;3.28;;;18.80;99.90;;;18.07;94.77;101312.16;4952994;28;20525;-76
2023/08/14 00:59:00;;;;;;;11.43;3.78;;;18.80;99.90;;;18.08;94.60;101313.88;4944914;28;20519;-75
2023/08/14 01:01:26;;;;;;;15.52;4.38;;;18.80;99.90;;;18.06;95.10;101321.13;4956345;28;20042;-76
2023/08/14 01:03:53;;;;;;;10.98;4.28;;;18.80;99.90;;;18.02;96.30;101322.28;4951306;28;20112;-76
2023/08/14 01:06:19;;;;;;;11.13;4.32;;;18.80;99.90;;;18.02;96.66;101323.13;4970935;28;20120;-76
2023/08/14 01:08:46;;;;;;;15.65;4.78;;;18.70;99.90;;;17.96;97.74;101317.38;4937516;28;20035;-76
2023/08/14 01:11:17;;;;;;;13.07;4.05;;;18.70;99.90;;;17.93;97.88;101321.09;4938866;28;20042;-76
2023/08/14 01:14:25;;;;;;;16.25;4.07;;;18.70;99.90;;;17.84;98.47;101316.41;4952688;28;20441;-76
2023/08/14 01:16:56;;;;;;;;;;;18.70;99.90;;;17.71;99.85;101320.81;4955465;28;20458;-76
2023/08/14 01:19:36;;;;;;;13.57;4.18;;;18.60;99.90;;;17.68;99.90;101319.19;4942646;28;19949;-76
2023/08/14 01:22:10;;;;;;;11.65;4.05;;;18.60;99.90;;;17.72;99.83;101315.38;4955454;28;20062;-76
2023/08/14 01:25:18;;;;;;;11.50;3.90;;;18.60;99.90;;;17.74;99.46;101318.78;4968812;28;20092;-75
2023/08/14 01:27:44;;;;;;;;;;;18.60;99.90;;;17.69;100.00;101320.03;4961002;28;20096;-76
2023/08/14 01:30:10;;;;;;;12.90;4.20;;;18.50;99.90;;;17.59;100.00;101312.69;4936659;28;19924;-76
2023/08/14 01:32:36;;;;;;;17.25;4.90;;;18.40;99.90;;;17.56;100.00;101310.25;4953593;28;20125;-76
2023/08/14 01:35:02;;;;;;;12.85;4.35;;;18.50;99.90;;;17.55;100.00;101299.69;4957913;28;20618;-76
2023/08/14 01:38:04;;;;;;;16.85;4.15;;;18.40;99.90;;;17.53;100.00;101304.25;4960077;28;20523;-76
2023/08/14 01:40:53;;;;;;;13.88;4.65;;;18.40;99.90;;;17.54;100.00;101303.31;4937217;28;20077;-76
2023/08/14 01:43:31;;;;;;;11.73;4.28;;;18.40;99.90;;;17.50;100.00;101302.66;4944744;28;20045;-75
2023/08/14 01:45:58;;;;;;;11.57;4.13;;;18.40;99.90;;;17.53;100.00;101305.09;4952949;28;20027;-75
2023/08/14 01:48:25;;;;;;;11.52;4.22;;;18.40;99.90;;;17.55;100.00;101299.69;4952402;28;20037;-76
2023/08/14 01:50:53;;;;;;;12.10;4.53;;;18.30;99.90;;;17.55;99.82;101300.53;4952978;28;20043;-76
2023/08/14 01:53:19;;;;;;;10.57;4.13;;;18.30;99.90;;;17.51;98.67;101300.84;4935988;28;20134;-76
2023/08/14 01:55:45;;;;;;;10.77;4.10;;;18.30;99.90;;;17.47;97.98;101299.34;4951676;28;20559;-76
2023/08/14 01:58:11;;;;;;;16.25;4.38;;;18.30;99.90;;;17.43;97.47;101296.88;4953302;28;20047;-76
2023/08/14 02:00:39;;;;;;;13.98;4.63;;;18.30;99.90;;;17.42;97.08;101294.31;4949064;28;20054;-75
2023/08/14 02:03:05;;;;;;;9.82;4.50;;;18.20;99.90;;;17.42;97.20;101308.47;4967955;28;20058;-76
2023/08/14 02:05:31;;;;;;;12.38;3.75;;;18.20;99.90;;;17.45;96.92;101306.56;4970526;28;20061;-76
2023/08/14 02:07:57;;;;;;;11.70;4.18;;;18.30;99.90;;;17.46;97.00;101306.47;4942412;28;20105;-76
2023/08/14 02:10:23;;;;;;;15.45;3.83;;;18.30;99.90;;;17.50;97.06;101302.66;4951976;28;20039;-75
2023/08/14 02:12:48;;;;;;;;;;;18.30;99.90;;;17.50;96.83;101304.47;4942666;28;20114;-76
2023/08/14 02:15:14;;;;;;;13.55;4.25;;;18.30;99.90;;;17.50;96.97;101307.13;4940746;28;19913;-76
2023/08/14 02:17:41;;;;;;;8.20;3.78;;;18.30;99.90;;;17.47;98.25;101297.53;4950917;28;20095;-75
2023/08/14 02:20:08;;;;;;;13.10;4.40;;;18.30;99.90;;;17.46;99.13;101287.84;4969974;28;20740;-76
2023/08/14 02:22:34;;;;;;;13.05;4.55;;;18.30;99.90;;;17.45;99.52;101290.59;4970073;28;20408;-75
2023/08/14 02:24:59;;;;;;;12.65;4.88;;;18.30;99.90;;;17.35;100.00;101285.03;4950034;28;20114;-76
2023/08/14 02:27:25;;;;;;;11.68;4.65;;;18.20;99.90;;;17.27;100.00;101290.84;4952639;28;20114;-76
2023/08/14 02:29:51;;;;;;;15.93;4.30;;;18.20;99.90;;;17.25;100.00;101286.59;4941069;28;20049;-76
2023/08/14 02:32:16;;;;;;;15.93;4.63;;;18.10;99.90;;;17.21;100.00;101285.94;4972199;28;20126;-76
2023/08/14 02:34:47;;;;;;;12.23;4.10;;;18.10;99.90;;;17.22;100.00;101280.53;4972448;28;20034;-76
2023/08/14 02:37:15;;;;;;;13.73;4.40;;;18.10;99.90;;;17.20;100.00;101278.91;4960845;28;20038;-76
2023/08/14 02:39:42;;;;;;;12.18;4.28;;;18.10;99.90;;;17.16;100.00;101280.91;4955784;28;20035;-76
2023/08/14 02:42:08;;;;;;;11.23;4.30;;;18.00;99.90;;;17.14;100.00;101276.66;4947934;28;20043;-76
2023/08/14 02:44:38;;;;;;;8.18;4.18;;;18.00;99.90;;;17.10;100.00;101275.16;4971523;28;20034;-76
2023/08/14 02:47:04;;;;;;;8.63;3.65;;;18.00;99.90;;;17.11;100.00;101280.38;4956666;28;20066;-75
2023/08/14 02:49:30;;;;;;;12.65;4.30;;;18.00;99.90;;;17.10;100.00;101288.44;4956458;28;20108;-76
2023/08/14 02:51:56;;;;;;;10.18;4.00;;;18.00;99.90;;;17.06;100.00;101284.28;4954842;28;20042;-76
2023/08/14 02:54:22;;;;;;;13.32;4.45;;;18.00;99.90;;;17.06;100.00;101273.63;4956607;28;20030;-76
2023/08/14 02:56:48;;;;;;;9.85;4.35;;;18.00;99.90;;;17.06;100.00;101271.81;4952541;28;20407;-76
2023/08/14 02:59:15;;;;;;;11.00;4.07;;;18.00;99.90;;;17.10;100.00;101272.50;4954929;28;20042;-76
2023/08/14 03:01:41;;;;;;;11.48;4.07;;;17.90;99.90;;;17.10;100.00;101272.50;4956549;28;20034;-76
2023/08/14 03:04:06;;;;;;;10.93;3.92;;;17.90;99.90;;;17.14;99.87;101269.53;4971511;28;20042;-77
2023/08/14 03:06:32;;;;;;;10.50;3.83;;;18.00;99.90;;;17.14;99.41;101269.53;4931349;28;20092;-76
2023/08/14 03:08:59;;;;;;;12.32;3.80;;;18.00;99.90;;;17.21;98.47;101280.63;4971786;28;20085;-75
2023/08/14 03:11:25;;;;;;;11.43;3.67;;;18.00;99.90;;;17.20;98.21;101273.59;4940883;28;20075;-76
2023/08/14 03:13:51;;;;;;;13.35;4.20;;;18.00;99.90;;;17.18;98.04;101273.69;4955234;28;20158;-76
2023/08/14 03:16:17;;;;;;;8.73;3.33;;;18.00;99.90;;;17.16;97.68;101278.25;4955036;28;20035;-76
2023/08/14 03:18:43;;;;;;;12.45;3.70;;;18.00;99.90;;;17.18;97.08;101284.34;4955228;28;20085;-76
2023/08/14 03:21:09;;;;;;;8.57;3.72;;;18.00;99.90;;;17.18;97.09;101275.50;4954023;28;20055;-76
2023/08/14 03:23:35;;;;;;;12.35;4.00;;;18.10;99.90;;;17.16;96.64;101274.75;4949209;28;20038;-76
2023/08/14 03:26:04;;;;;;;11.05;3.42;;;18.00;99.90;;;17.15;96.05;101275.72;4954415;28;20030;-76
2023/08/14 03:28:29;;;;;;;14.45;3.40;;;18.00;99.90;;;17.16;95.34;101269.44;4955128;28;20092;-76
2023/08/14 03:30:55;;;;;;;10.88;3.30;;;18.00;99.90;;;17.22;94.72;101271.69;4954457;28;20051;-76
2023/08/14 03:33:21;;;;;;;10.27;3.97;;;18.00;99.90;;;17.24;94.41;101269.78;4959163;28;20117;-76
2023/08/14 03:35:47;;;;;;;11.35;3.70;;;18.10;99.90;;;17.31;94.24;101272.88;4951026;28;20041;-75
2023/08/14 03:38:13;;;;;;;13.05;3.80;;;18.10;99.90;;;17.23;94.35;101265.41;4956754;28;20039;-76
2023/08/14 03:40:39;;;;;;;6.57;3.17;;;18.10;99.90;;;17.17;94.13;101271.13;4955688;28;20034;-76
2023/08/14 03:43:04;;;;;;;12.07;3.90;;;18.00;99.90;;;17.18;93.74;101270.19;4953948;28;20109;-76
2023/08/14 03:45:30;;;;;;;9.20;3.30;;;18.00;99.90;;;17.10;94.07;101267.16;4963642;28;20494;-76
2023/08/14 03:47:56;;;;;;;10.63;3.85;;;18.00;99.90;;;17.12;93.71;101268.75;4953585;28;21569;-75
2023/08/14 03:50:22;;;;;;;14.85;3.38;;;18.00;99.90;;;17.07;93.48;101273.53;4957236;28;20481;-76
2023/08/14 03:52:48;;;;;;;9.20;3.75;;;18.00;99.90;;;17.08;93.32;101266.41;4938520;28;20031;-75
2023/08/14 03:55:14;;;;;;;13.90;3.30;;;18.00;99.90;;;17.07;93.44;101268.22;4952752;28;20042;-76
2023/08/14 03:57:40;;;;;;;10.25;3.30;;;17.90;99.90;;;17.09;92.98;101263.66;4947055;28;20034;-76
2023/08/14 04:00:08;;;;;;;16.88;3.35;;;17.90;99.90;;;17.07;92.97;101260.25;4941150;28;20030;-76
2023/08/14 04:02:34;;;;;;;13.10;3.55;;;17.90;99.90;;;17.04;93.29;101255.13;4938654;28;20042;-76
2023/08/14 04:04:59;;;;;;;16.52;3.85;;;17.90;99.90;;;17.05;93.07;101256.81;4954653;28;20116;-76
2023/08/14 04:07:25;;;;;;;9.10;3.38;;;17.90;99.90;;;17.06;93.43;101263.00;4953522;28;20035;-76
2023/08/14 04:09:51;;;;;;;13.48;3.80;;;17.90;99.90;;;17.03;93.28;101272.03;4947105;28;20123;-76
2023/08/14 04:12:17;;;;;;;14.93;4.55;;;17.80;99.90;;;17.03;93.47;101261.41;4951309;28;20043;-76
2023/08/14 04:14:46;;;;;;;18.52;3.63;;;17.90;99.90;;;17.00;93.88;101262.44;4953626;28;20041;-76
2023/08/14 04:17:12;;;;;;;10.65;3.90;;;17.90;99.90;;;17.03;93.52;101261.41;4946820;28;20393;-76
2023/08/14 04:19:37;;;;;;;11.32;3.80;;;17.80;99.90;;;17.05;93.26;101264.81;4960287;28;20037;-76
2023/08/14 04:22:03;;;;;;;11.23;3.70;;;17.90;99.90;;;17.09;92.83;101260.16;4973728;28;20637;-76
2023/08/14 04:24:29;;;;;;;13.75;3.80;;;17.90;99.90;;;17.14;92.79;101255.38;4962450;28;20629;-76
2023/08/14 04:26:55;;;;;;;12.25;3.92;;;17.90;99.90;;;17.21;92.04;101259.31;4956779;28;20058;-76
2023/08/14 04:29:21;;;;;;;7.38;4.07;;;18.00;99.90;;;17.30;91.42;101256.06;4951801;28;20031;-76
2023/08/14 04:31:46;;;;;;;24.10;4.68;;;18.00;99.90;;;17.41;90.99;101266.84;4954622;28;20046;-75
2023/08/14 04:34:12;;;;;;;15.13;4.43;;;18.10;99.90;;;17.46;90.25;101263.88;4954619;28;20106;-76
2023/08/14 04:36:38;;;;;;;13.63;4.35;;;18.40;99.90;;;18.30;88.29;101265.25;4985277;28;20045;-76
2023/08/14 04:39:04;;;;;;;16.10;4.07;;;19.30;99.90;;;19.96;81.60;101274.41;4969526;28;20031;-76
2023/08/14 04:41:31;;;;;;;12.73;3.33;;;19.60;99.90;;;19.76;79.33;101278.63;4955666;28;20061;-76
2023/08/14 04:43:57;;;;;;;13.07;3.58;;;19.80;99.90;;;19.98;78.19;101284.97;4954637;28;20097;-76
2023/08/14 04:46:34;;;;;;;11.32;3.03;;;20.00;99.90;;;20.07;77.64;101277.09;4954774;28;20494;-76
2023/08/14 04:49:01;;;;;;;11.00;3.40;;;20.80;99.90;;;22.06;72.69;101293.03;4939623;28;20041;-76
2023/08/14 04:51:27;;;;;;;10.52;3.30;;;22.10;99.90;;;24.05;65.31;101309.13;4951030;28;20042;-77
2023/08/14 04:54:02;;;;;;;10.00;2.83;;;23.40;99.90;;;25.80;60.66;101318.09;4946292;28;20046;-76
2023/08/14 04:56:30;;;;;;;11.38;3.30;;;24.70;99.90;;;27.45;56.07;101326.00;4953367;28;20038;-76
2023/08/14 04:58:56;;;;;;;13.82;3.22;;;25.90;99.90;;;28.52;53.32;101331.31;4956851;28;20047;-76
2023/08/14 05:01:22;;;;;;;8.23;3.20;;;26.80;99.90;;;29.76;50.58;101349.47;4947581;28;20045;-77
2023/08/14 05:03:48;;;;;;;13.65;3.75;;;27.70;99.90;;;30.49;48.49;101355.19;4952651;28;20129;-76
2023/08/14 05:06:14;;;;;;;8.73;3.38;;;28.40;99.90;;;31.58;46.43;101377.06;4956114;28;20126;-76
2023/08/14 05:08:40;;;;;;;12.32;3.83;;;29.10;99.90;;;32.29;44.81;101384.38;4952076;28;20106;-76
2023/08/14 05:11:06;;;;;;;8.30;3.80;;;29.40;99.90;;;32.26;44.23;101398.38;4956678;28;20046;-76
2023/08/14 05:13:32;;;;;;;10.55;3.70;;;29.70;99.10;;;32.45;43.65;101400.41;4946237;28;20550;-76
2023/08/14 05:15:57;;;;;;;9.85;3.50;;;30.10;99.10;;;33.44;41.99;101417.50;4936664;28;20031;-76
2023/08/14 05:18:23;;;;;;;13.60;3.60;;;30.70;98.80;;;34.27;40.83;101423.47;4936906;28;20089;-76
2023/08/14 05:20:50;;;;;;;12.32;3.47;;;31.00;97.50;;;34.72;40.04;101429.09;4954395;28;20042;-76
2023/08/14 05:23:16;;;;;;;10.50;3.80;;;31.50;97.90;;;35.65;38.92;101436.09;4953068;28;20070;-76
2023/08/14 05:25:44;;;;;;;12.57;3.65;;;32.00;96.70;;;36.20;37.59;101448.34;4966155;28;20460;-76
2023/08/14 05:28:10;;;;;;;8.75;3.47;;;32.30;96.60;;;36.62;36.89;101449.44;4951975;28;20034;-76
2023/08/14 05:30:36;;;;;;;8.98;3.60;;;32.70;95.90;;;37.18;36.31;101454.94;4952483;28;20041;-76
2023/08/14 05:33:03;;;;;;;9.50;3.38;;;33.30;94.90;;;37.86;34.79;101470.25;4953563;28;20118;-77
2023/08/14 05:35:29;;;;;;;8.15;3.65;;;33.40;92.70;;;36.98;35.35;101466.13;4953279;28;20093;-77
2023/08/14 05:37:56;;;;;;;13.85;3.30;;;33.80;93.10;;;38.00;34.20;101471.72;4938515;28;20031;-76
2023/08/14 05:40:26;;;;;;;10.30;3.50;;;33.90;92.30;;;36.95;35.37;101465.50;4936359;28;20044;-76
2023/08/14 05:43:10;;;;;;;10.00;3.65;;;33.30;92.50;;;33.80;38.11;101440.88;4953047;28;20054;-76
2023/08/14 05:45:45;;;;;;;15.77;3.20;;;32.00;93.30;;;31.92;41.44;101407.28;4950871;28;20046;-77
2023/08/14 05:48:13;;;;;;;11.85;3.75;;;31.00;93.80;;;30.07;44.83;101389.22;4938265;28;20038;-76
2023/08/14 05:50:39;;;;;;;12.57;3.33;;;30.30;95.30;;;30.47;44.51;101378.97;4952524;28;20047;-74
2023/08/14 05:53:06;;;;;;;11.10;3.22;;;30.10;95.30;;;31.98;41.97;101392.94;4928291;28;20030;-74
2023/08/14 05:55:39;;;;;;;7.97;2.97;;;30.60;95.10;;;35.13;38.04;101424.34;4920307;28;20114;-74
2023/08/14 05:58:06;;;;;;;12.80;3.05;;;31.70;94.20;;;36.41;35.67;101442.44;4970904;28;20073;-75
2023/08/14 06:00:33;;;;;;;7.82;2.65;;;32.40;93.60;;;36.96;34.89;101444.44;4941981;28;20057;-73
2023/08/14 06:02:59;;;;;;;8.38;3.25;;;33.10;92.70;;;37.78;33.81;101465.09;4944520;28;20030;-74
2023/08/14 06:05:28;;;;;;;12.98;3.70;;;33.80;92.60;;;38.61;32.75;101477.09;4952399;28;20031;-74
2023/08/14 06:07:55;;;;;;;10.35;3.42;;;34.30;90.20;;;37.95;32.96;101463.38;4959444;28;20394;-74
2023/08/14 06:10:21;;;;;;;8.88;3.05;;;35.10;91.40;;;39.82;31.33;101473.50;4956388;28;20033;-74
2023/08/14 06:12:48;;;;;;;9.15;3.22;;;35.30;86.50;;;38.41;31.71;101472.75;4959758;28;20047;-74
2023/08/14 06:15:16;;;;;;;11.18;3.47;;;35.40;86.40;;;38.78;31.43;101473.34;4943694;28;20060;-74
2023/08/14 06:17:42;;;;;;;9.65;3.10;;;35.70;85.90;;;39.26;30.72;101468.56;4972644;28;20031;-74
2023/08/14 06:20:12;;;;;;;5.78;2.67;;;35.90;86.60;;;39.32;31.21;101483.28;4955632;28;20053;-74
2023/08/14 06:22:43;;;;;;;7.43;3.42;;;36.40;86.80;;;39.99;29.92;101494.50;4954586;28;20057;-73
2023/08/14 06:25:10;;;;;;;8.05;2.90;;;36.90;86.10;;;40.58;29.93;101491.28;4958523;28;20043;-74
2023/08/14 06:27:36;;;;;;;12.05;3.05;;;37.40;87.20;;;40.42;30.03;101481.16;4954197;28;20041;-74
2023/08/14 06:30:02;;;;;;;11.82;3.30;;;37.50;83.10;;;40.06;30.20;101483.31;4950599;28;20034;-74
2023/08/14 06:32:28;;;;;;;12.73;3.15;;;38.00;82.60;;;41.24;29.47;101489.75;4946571;28;20069;-74
2023/08/14 06:34:54;;;;;;;8.57;2.88;;;38.60;81.30;;;41.91;28.40;101486.56;4955515;28;20042;-74
2023/08/14 06:37:19;;;;;;;12.45;2.60;;;39.00;78.30;;;41.39;28.44;101478.84;4957458;28;20126;-74
2023/08/14 06:39:45;;;;;;;7.22;2.67;;;39.30;81.60;;;41.87;28.35;101470.75;4939120;28;20127;-74
2023/08/14 06:42:11;;;;;;;8.88;3.13;;;39.70;80.40;;;42.27;27.66;101483.25;4972019;28;20456;-74
2023/08/14 06:44:37;;;;;;;18.63;3.92;;;40.00;79.30;;;42.43;27.56;101481.47;4954482;28;20038;-74
2023/08/14 06:47:03;;;;;;;9.48;3.22;;;40.30;76.40;;;42.25;27.41;101479.91;4956164;28;20436;-74
2023/08/14 06:49:29;;;;;;;21.05;3.60;;;40.60;78.20;;;42.77;27.71;101479.19;4952477;28;20041;-74
2023/08/14 06:51:55;;;;;;;11.38;3.20;;;40.90;77.30;;;43.10;27.08;101472.41;4940638;28;20100;-74
2023/08/14 06:54:21;;;;;;;7.90;3.15;;;41.20;74.70;;;42.97;27.01;101476.50;4957559;28;20371;-74
2023/08/14 06:56:46;;;;;;;9.13;3.00;;;41.40;75.00;;;43.19;26.90;101473.53;4958579;28;20041;-74
2023/08/14 06:59:12;;;;;;;13.20;3.20;;;41.50;73.20;;;42.87;27.26;101465.38;4948010;28;20051;-74
2023/08/14 07:01:38;;;;;;;9.90;3.08;;;41.70;73.20;;;43.05;26.92;101454.91;4956417;28;20026;-74
2023/08/14 07:04:04;;;;;;;5.82;2.80;;;41.80;72.20;;;43.05;26.97;101450.22;4958261;28;20096;-74
2023/08/14 07:06:30;;;;;;;6.90;3.00;;;41.80;73.80;;;43.09;26.75;101437.50;4972617;28;20541;-76
2023/08/14 07:08:56;;;;;;;8.38;3.33;;;40.80;67.90;;;39.30;30.19;101391.81;4957677;28;20050;-74
2023/08/14 07:11:22;;;;;;;7.57;3.13;;;40.50;71.30;;;40.52;29.39;101393.00;4972149;28;20042;-74
2023/08/14 07:13:47;;;;;;;6.13;2.90;;;40.60;74.30;;;41.55;28.45;101396.91;4937893;28;20448;-74
2023/08/14 07:16:13;;;;;;;14.23;3.13;;;41.00;73.50;;;42.40;27.67;101400.63;4957044;28;20134;-74
2023/08/14 07:18:39;;;;;;;7.72;2.70;;;41.50;73.50;;;42.84;27.66;101404.19;4955670;28;20085;-74
2023/08/14 07:21:05;;;;;;;11.60;3.40;;;42.00;71.50;;;42.69;27.79;101407.69;4974641;28;20121;-74
2023/08/14 07:23:32;;;;;;;8.20;3.10;;;42.00;71.70;;;42.97;27.14;101425.81;4953192;28;20049;-74
2023/08/14 07:26:03;;;;;;;11.00;2.90;;;42.20;71.90;;;42.80;27.77;101421.28;4971740;28;20027;-74
2023/08/14 07:28:29;;;;;;;12.55;2.97;;;42.30;71.70;;;43.28;26.74;101418.44;4957121;28;20066;-74
2023/08/14 07:30:55;;;;;;;25.10;3.92;;;42.60;70.30;;;43.57;26.44;101415.97;4968103;28;20035;-74
2023/08/14 07:33:21;;;;;;;5.85;2.78;;;42.90;70.10;;;42.58;27.07;101407.66;4955107;28;20027;-74
2023/08/14 07:35:49;;;;;;;11.20;3.28;;;42.70;69.20;;;42.37;27.66;101395.59;4985998;28;20114;-74
2023/08/14 07:38:15;;;;;;;10.05;2.92;;;42.60;68.70;;;42.92;27.01;101395.31;4939828;28;20042;-75
2023/08/14 07:40:41;;;;;;;9.63;3.13;;;42.70;69.40;;;42.92;27.29;101392.56;4939067;28;20033;-74
2023/08/14 07:43:06;;;;;;;7.32;3.17;;;42.80;70.00;;;43.01;26.96;101388.16;4957575;28;20058;-74
2023/08/14 07:45:32;;;;;;;9.95;3.50;;;43.00;68.80;;;43.10;26.54;101394.00;4958190;28;20070;-74
2023/08/14 07:47:58;;;;;;;6.50;3.33;;;43.10;68.10;;;42.47;27.74;101386.56;4942207;28;20117;-74
2023/08/14 07:50:23;;;;;;;6.43;3.00;;;42.80;68.70;;;42.59;27.12;101378.88;4973206;28;20062;-74
2023/08/14 07:52:49;;;;;;;6.32;3.00;;;42.80;68.20;;;42.42;27.32;101378.22;4955369;28;20019;-75
2023/08/14 07:55:16;;;;;;;9.57;3.20;;;42.70;68.10;;;42.35;27.57;101378.44;4953661;28;20121;-75
2023/08/14 07:57:45;;;;;;;13.80;3.25;;;42.60;68.70;;;42.14;28.01;101363.69;4938415;28;20031;-74
2023/08/14 08:00:13;;;;;;;10.05;3.63;;;42.40;68.80;;;41.39;28.44;101360.88;4958953;28;20057;-74
2023/08/14 08:02:39;;;;;;;11.20;3.15;;;42.20;68.60;;;41.46;28.91;101349.59;4954951;28;20101;-74
2023/08/14 08:05:05;;;;;;;9.05;3.15;;;41.90;70.00;;;41.67;29.29;101358.91;4951356;28;20555;-74
2023/08/14 08:07:31;;;;;;;13.10;3.17;;;41.80;70.70;;;41.88;28.61;101370.09;4946799;28;20035;-75
2023/08/14 08:09:58;;;;;;;9.07;3.65;;;42.00;69.40;;;41.70;28.62;101363.91;4975600;28;20924;-74
2023/08/14 08:12:23;;;;;;;9.05;3.40;;;41.90;69.70;;;40.69;29.16;101359.78;4937362;28;20713;-74
2023/08/14 08:14:49;;;;;;;9.73;2.95;;;41.60;69.40;;;39.38;31.38;101328.88;4972292;28;20042;-74
2023/08/14 08:17:17;;;;;;;6.68;3.53;;;40.70;70.70;;;39.61;30.73;101338.09;4972810;28;20472;-74
2023/08/14 08:19:44;;;;;;;10.07;3.35;;;40.30;71.70;;;39.48;30.85;101338.44;4953477;28;20035;-74
2023/08/14 08:22:10;;;;;;;10.40;3.30;;;39.90;72.20;;;39.58;31.70;101333.09;4955833;28;20046;-74
2023/08/14 08:24:35;;;;;;;11.60;3.45;;;39.80;69.80;;;39.15;31.09;101334.53;4954384;28;20062;-74
2023/08/14 08:27:01;;;;;;;15.32;3.20;;;39.70;72.50;;;39.43;31.51;101336.44;4954013;28;20478;-74
2023/08/14 08:29:27;;;;;;;6.28;2.90;;;39.40;71.50;;;38.82;32.02;101330.59;4953935;28;20685;-75
2023/08/14 08:31:52;;;;;;;8.38;2.95;;;39.10;72.80;;;38.46;32.57;101316.06;4964260;28;20188;-74
2023/08/14 08:34:18;;;;;;;8.70;3.08;;;38.80;73.60;;;38.41;33.01;101317.91;4952386;28;20478;-74
2023/08/14 08:36:44;;;;;;;7.97;3.42;;;38.60;73.50;;;38.16;33.01;101321.75;4972834;28;20459;-74
2023/08/14 08:39:10;;;;;;;9.40;3.40;;;38.30;74.90;;;37.92;33.83;101313.50;4956014;28;20050;-74
2023/08/14 08:41:44;;;;;;;8.18;3.28;;;38.00;75.20;;;37.56;34.11;101309.06;4956294;28;20763;-74
2023/08/14 08:44:25;;;;;;;12.20;3.60;;;37.70;74.50;;;37.24;34.05;101295.63;4935086;28;20045;-74
2023/08/14 08:47:02;;;;;;;11.45;3.47;;;37.30;75.10;;;36.83;34.20;101288.19;4945681;28;20027;-74
2023/08/14 08:49:28;;;;;;;8.73;3.05;;;37.00;75.50;;;36.47;34.75;101282.50;4959293;28;20470;-75
2023/08/14 08:51:55;;;;;;;8.35;3.20;;;36.60;76.50;;;36.21;35.34;101278.16;4971736;28;20509;-75
2023/08/14 08:54:21;;;;;;;6.38;3.50;;;36.10;76.70;;;35.71;36.78;101268.13;4974958;28;20053;-74
2023/08/14 08:56:47;;;;;;;8.93;3.40;;;35.70;78.20;;;35.23;37.05;101265.13;4954696;28;20191;-74
2023/08/14 08:59:14;;;;;;;10.68;3.20;;;35.20;77.50;;;34.65;37.28;101253.28;4949534;28;20051;-74
2023/08/14 09:01:45;;;;;;;9.70;3.75;;;34.80;80.70;;;33.97;38.57;101237.28;4950204;28;20100;-74
2023/08/14 09:04:11;;;;;;;10.48;3.22;;;34.20;81.80;;;33.47;40.08;101245.94;4954735;28;20053;-74
2023/08/14 09:06:36;;;;;;;14.80;3.83;;;33.90;81.80;;;33.22;40.30;101234.81;4958165;28;20034;-74
2023/08/14 09:09:06;;;;;;;7.63;3.22;;;33.90;83.10;;;32.76;41.62;101235.53;4935393;28;21333;-74
2023/08/14 09:11:33;;;;;;;14.00;3.80;;;33.30;83.40;;;32.61;41.69;101232.13;4949876;28;20101;-74
2023/08/14 09:14:00;;;;;;;11.07;3.85;;;33.10;84.00;;;32.43;42.26;101240.84;4942387;28;20046;-75
2023/08/14 09:16:32;;;;;;;11.55;3.92;;;32.90;85.30;;;32.42;41.98;101237.31;4970158;28;20517;-75
2023/08/14 09:18:59;;;;;;;12.10;3.42;;;32.90;85.30;;;32.38;41.77;101238.75;4955709;28;20515;-74
2023/08/14 09:21:27;;;;;;;8.65;3.20;;;32.70;86.90;;;32.37;42.89;101234.31;4956186;28;20031;-74
2023/08/14 09:23:56;;;;;;;18.13;3.88;;;32.50;85.30;;;31.71;42.94;101223.03;4954910;28;20083;-74
2023/08/14 09:26:25;;;;;;;8.93;4.05;;;32.30;86.70;;;31.71;43.82;101214.88;4954017;28;20042;-75
2023/08/14 09:28:52;;;;;;;9.73;3.65;;;32.20;86.80;;;31.67;42.87;101222.59;4955113;28;20046;-75
2023/08/14 09:31:21;;;;;;;9.43;3.55;;;32.00;86.30;;;31.54;43.07;101222.53;4953522;28;20077;-75
2023/08/14 09:33:47;;;;;;;11.57;3.70;;;31.90;86.50;;;31.43;42.97;101226.63;4971092;28;20042;-74
2023/08/14 09:36:17;;;;;;;6.78;3.15;;;31.80;86.90;;;31.41;43.86;101226.78;4954489;28;20034;-74
2023/08/14 09:38:43;;;;;;;7.88;3.20;;;31.80;87.60;;;31.50;43.48;101227.50;4955997;28;20575;-74
2023/08/14 09:41:10;;;;;;;11.52;3.30;;;31.80;88.30;;;31.58;43.99;101223.81;4957565;28;20055;-74
2023/08/14 09:43:36;;;;;;;7.28;3.53;;;31.90;88.10;;;31.64;43.79;101225.72;4937846;28;20491;-74
2023/08/14 09:46:03;;;;;;;11.10;3.83;;;31.90;88.40;;;31.66;43.69;101224.50;4945486;28;20027;-74
2023/08/14 09:48:45;;;;;;;9.82;3.53;;;31.90;88.10;;;31.60;44.20;101222.56;4939563;28;20110;-74
2023/08/14 09:51:18;;;;;;;9.77;3.70;;;31.90;89.50;;;31.72;43.83;101222.00;4971505;28;20463;-74
2023/08/14 09:53:56;;;;;;;8.75;3.47;;;32.00;87.70;;;31.56;43.25;101220.44;4959530;28;20034;-74
2023/08/14 09:56:26;;;;;;;8.05;3.50;;;32.00;88.70;;;31.63;43.72;101214.00;4952587;28;20157;-74
2023/08/14 09:58:56;;;;;;;7.50;3.55;;;32.00;87.90;;;31.59;43.24;101206.44;4958060;28;20042;-75
2023/08/14 10:01:25;;;;;;;9.27;3.50;;;31.90;87.90;;;31.46;43.51;101210.72;4955156;28;20137;-75
2023/08/14 10:03:54;;;;;;;11.15;3.95;;;31.80;87.90;;;31.31;43.91;101207.22;4954841;28;20599;-75
2023/08/14 10:06:23;;;;;;;6.03;3.30;;;31.70;88.70;;;31.46;44.22;101204.44;4954223;28;20062;-75
2023/08/14 10:08:55;;;;;;;11.25;3.58;;;31.70;87.60;;;31.30;43.70;101199.25;4953936;28;20495;-76